createdAt,value
2023-02-04T00:00:23.233Z,2.90
2023-02-04T00:02:52.872Z,2.78
2023-02-04T00:05:21.923Z,2.90
2023-02-04T00:07:49.949Z,2.90
2023-02-04T00:10:18.949Z,2.78
2023-02-04T00:12:46.848Z,2.80
2023-02-04T00:15:14.818Z,2.85
2023-02-04T00:17:42.838Z,2.80
2023-02-04T00:20:12.912Z,2.60
2023-02-04T00:22:40.870Z,2.58
2023-02-04T00:25:09.917Z,2.88
2023-02-04T00:27:37.894Z,3.35
2023-02-04T00:30:06.997Z,3.00
2023-02-04T00:32:34.886Z,2.95
2023-02-04T00:35:04.713Z,2.90
2023-02-04T00:37:34.204Z,2.70
2023-02-04T00:40:02.311Z,2.97
2023-02-04T00:42:30.273Z,2.50
2023-02-04T00:44:58.377Z,3.03
2023-02-04T00:47:26.547Z,2.58
2023-02-04T00:49:59.537Z,2.65
2023-02-04T00:52:27.525Z,2.60
2023-02-04T00:54:56.768Z,2.53
2023-02-04T00:57:24.578Z,3.42
2023-02-04T00:59:52.510Z,2.58
2023-02-04T01:02:20.882Z,2.83
2023-02-04T01:04:48.930Z,2.50
2023-02-04T01:07:17.036Z,2.58
2023-02-04T01:09:45.077Z,2.78
2023-02-04T01:12:14.532Z,2.80
2023-02-04T01:14:42.607Z,2.47
2023-02-04T01:17:10.681Z,2.90
2023-02-04T01:19:40.971Z,2.90
2023-02-04T01:22:08.909Z,2.72
2023-02-04T01:24:36.825Z,2.70
2023-02-04T01:27:05.132Z,2.40
2023-02-04T01:29:34.612Z,2.67
2023-02-04T01:32:02.618Z,2.60
2023-02-04T01:34:31.658Z,2.80
2023-02-04T01:36:59.552Z,2.50
2023-02-04T01:39:27.529Z,2.80
2023-02-04T01:41:55.774Z,2.70
2023-02-04T01:44:23.843Z,2.85
2023-02-04T01:46:53.248Z,2.97
2023-02-04T01:49:23.312Z,2.90
2023-02-04T01:51:51.535Z,2.80
2023-02-04T01:54:21.605Z,2.80
2023-02-04T01:56:51.768Z,2.85
2023-02-04T01:59:22.045Z,2.60
2023-02-04T02:01:51.979Z,2.47
2023-02-04T02:04:24.859Z,2.70
2023-02-04T02:06:57.275Z,2.90
2023-02-04T02:09:25.781Z,2.67
2023-02-04T02:11:53.762Z,2.80
2023-02-04T02:14:22.725Z,2.55
2023-02-04T02:16:50.754Z,2.50
2023-02-04T02:19:27.351Z,2.55
2023-02-04T02:22:03.578Z,2.25
2023-02-04T02:24:35.008Z,2.83
2023-02-04T02:27:10.028Z,2.80
2023-02-04T02:32:19.313Z,2.80
2023-02-04T02:34:48.054Z,2.85
2023-02-04T02:37:15.970Z,2.70
2023-02-04T02:39:46.392Z,2.65
2023-02-04T02:42:17.589Z,2.90
2023-02-04T02:44:46.570Z,2.90
2023-02-04T02:47:16.205Z,3.00
2023-02-04T02:49:44.896Z,2.58
2023-02-04T02:52:14.805Z,3.00
2023-02-04T02:54:45.119Z,2.50
2023-02-04T02:57:15.965Z,2.83
2023-02-04T02:59:44.688Z,2.60
2023-02-04T03:02:19.201Z,2.80
2023-02-04T03:04:52.722Z,2.60
2023-02-04T03:07:22.382Z,2.63
2023-02-04T03:09:53.616Z,2.60
2023-02-04T03:12:21.641Z,2.35
2023-02-04T03:14:49.653Z,2.78
2023-02-04T03:17:17.871Z,2.65
2023-02-04T03:19:45.764Z,2.97
2023-02-04T03:22:13.876Z,2.80
2023-02-04T03:24:42.456Z,2.22
2023-02-04T03:27:11.788Z,2.85
2023-02-04T03:29:44.436Z,2.78
2023-02-04T03:32:12.624Z,2.70
2023-02-04T03:34:40.557Z,2.60
2023-02-04T03:37:08.796Z,2.80
2023-02-04T03:39:38.464Z,2.50
2023-02-04T03:42:06.322Z,2.67
2023-02-04T03:44:35.930Z,2.80
2023-02-04T03:47:03.892Z,2.50
2023-02-04T03:49:32.294Z,3.03
2023-02-04T03:52:00.301Z,2.58
2023-02-04T03:54:28.167Z,2.47
2023-02-04T03:56:55.885Z,2.63
2023-02-04T03:59:23.835Z,2.50
2023-02-04T04:01:53.478Z,2.65
2023-02-04T04:04:21.524Z,2.77
2023-02-04T04:06:49.532Z,2.78
2023-02-04T04:09:17.375Z,2.63
2023-02-04T04:11:45.378Z,2.77
2023-02-04T04:14:15.860Z,2.63
2023-02-04T04:16:43.733Z,2.53
2023-02-04T04:19:13.004Z,2.67
2023-02-04T04:21:41.084Z,2.67
2023-02-04T04:24:09.200Z,2.80
2023-02-04T04:26:37.130Z,2.50
2023-02-04T04:29:05.436Z,2.70
2023-02-04T04:31:33.662Z,2.80
2023-02-04T04:34:02.105Z,2.27
2023-02-04T04:36:31.543Z,2.63
2023-02-04T04:38:59.870Z,2.50
2023-02-04T04:41:27.878Z,2.77
2023-02-04T04:43:55.826Z,2.90
2023-02-04T04:46:23.943Z,2.53
2023-02-04T04:48:51.779Z,2.63
2023-02-04T04:51:19.713Z,2.63
2023-02-04T04:53:49.122Z,2.90
2023-02-04T04:56:19.191Z,2.50
2023-02-04T04:58:47.501Z,2.75
2023-02-04T05:01:15.377Z,2.50
2023-02-04T05:03:43.495Z,2.93
2023-02-04T05:06:13.217Z,2.60
2023-02-04T05:08:41.122Z,2.67
2023-02-04T05:11:10.438Z,2.20
2023-02-04T05:13:38.420Z,2.53
2023-02-04T05:16:06.812Z,2.47
2023-02-04T05:18:34.888Z,3.00
2023-02-04T05:21:03.245Z,2.70
2023-02-04T05:23:31.454Z,2.90
2023-02-04T05:25:59.547Z,2.55
2023-02-04T05:28:28.753Z,2.67
2023-02-04T05:30:56.647Z,2.90
2023-02-04T05:33:24.598Z,2.70
2023-02-04T05:35:52.560Z,2.50
2023-02-04T05:38:20.529Z,2.90
2023-02-04T05:40:48.444Z,2.73
2023-02-04T05:43:18.772Z,2.60
2023-02-04T05:45:48.351Z,2.65
2023-02-04T05:48:16.391Z,2.87
2023-02-04T05:50:44.200Z,2.20
2023-02-04T05:53:12.140Z,2.70
2023-02-04T05:55:40.093Z,2.30
2023-02-04T05:58:08.139Z,2.47
2023-02-04T06:00:36.027Z,2.70
2023-02-04T06:03:06.464Z,3.07
2023-02-04T06:05:34.429Z,2.80
2023-02-04T06:08:02.953Z,3.00
2023-02-04T06:10:31.156Z,2.40
2023-02-04T06:12:59.477Z,2.87
2023-02-04T06:15:27.522Z,2.70
2023-02-04T06:17:55.369Z,2.87
2023-02-04T06:20:24.633Z,2.93
2023-02-04T06:22:54.498Z,2.73
2023-02-04T06:25:22.521Z,2.30
2023-02-04T06:27:50.555Z,2.93
2023-02-04T06:30:19.744Z,2.50
2023-02-04T06:32:47.770Z,2.73
2023-02-04T06:35:18.877Z,2.70
2023-02-04T06:37:48.998Z,2.67
2023-02-04T06:40:17.044Z,2.80
2023-02-04T06:42:44.792Z,2.83
2023-02-04T06:45:12.862Z,2.70
2023-02-04T06:47:40.936Z,2.60
2023-02-04T06:50:09.686Z,2.70
2023-02-04T06:52:37.642Z,2.13
2023-02-04T06:55:10.276Z,2.87
2023-02-04T06:57:38.357Z,2.63
2023-02-04T07:00:07.064Z,3.00
2023-02-04T07:02:35.093Z,2.57
2023-02-04T07:05:03.014Z,2.80
2023-02-04T07:07:30.931Z,2.60
2023-02-04T07:09:58.789Z,2.53
2023-02-04T07:12:28.244Z,2.63
2023-02-04T07:14:56.154Z,3.03
2023-02-04T07:17:24.625Z,2.80
2023-02-04T07:19:52.976Z,2.73
2023-02-04T07:22:20.762Z,2.70
2023-02-04T07:24:48.557Z,2.70
2023-02-04T07:27:16.400Z,3.20
2023-02-04T07:29:45.474Z,3.03
2023-02-04T07:32:13.546Z,2.60
2023-02-04T07:34:41.425Z,3.00
2023-02-04T07:37:09.298Z,3.07
2023-02-04T07:39:37.207Z,2.57
2023-02-04T07:42:05.031Z,2.90
2023-02-04T07:44:32.908Z,2.80
2023-02-04T07:47:02.007Z,2.73
2023-02-04T07:49:30.014Z,2.80
2023-02-04T07:51:58.188Z,2.83
2023-02-04T07:54:26.618Z,2.70
2023-02-04T07:56:54.536Z,2.60
2023-02-04T07:59:22.299Z,2.77
2023-02-04T08:01:50.172Z,2.50
2023-02-04T08:04:19.531Z,2.90
2023-02-04T08:06:47.397Z,2.57
2023-02-04T08:09:15.486Z,2.93
2023-02-04T08:11:43.459Z,2.77
2023-02-04T08:14:11.728Z,2.80
2023-02-04T08:16:39.731Z,2.50
2023-02-04T08:19:07.605Z,2.57
2023-02-04T08:21:37.178Z,2.70
2023-02-04T08:24:05.691Z,2.87
2023-02-04T08:26:33.601Z,2.60
2023-02-04T08:29:01.497Z,2.70
2023-02-04T08:31:29.368Z,2.63
2023-02-04T08:33:57.268Z,2.50
2023-02-04T08:36:25.224Z,2.90
2023-02-04T08:38:54.536Z,3.10
2023-02-04T08:41:22.659Z,2.60
2023-02-04T08:43:50.656Z,2.60
2023-02-04T08:46:18.589Z,2.60
2023-02-04T08:48:46.615Z,2.38
2023-02-04T08:51:14.787Z,2.53
2023-02-04T08:53:42.549Z,2.20
2023-02-04T08:56:16.719Z,2.50
2023-02-04T08:58:45.685Z,2.57
2023-02-04T09:01:14.005Z,2.85
2023-02-04T09:03:42.231Z,2.97
2023-02-04T09:06:10.079Z,2.47
2023-02-04T09:08:38.551Z,2.72
2023-02-04T09:11:06.412Z,2.58
2023-02-04T09:13:35.525Z,2.50
2023-02-04T09:16:03.581Z,2.47
2023-02-04T09:18:32.608Z,2.60
2023-02-04T09:21:00.697Z,3.38
2023-02-04T09:23:28.521Z,2.70
2023-02-04T09:25:56.363Z,2.65
2023-02-04T09:28:24.248Z,2.72
2023-02-04T09:30:53.754Z,2.22
2023-02-04T09:33:21.544Z,2.40
2023-02-04T09:35:49.356Z,2.70
2023-02-04T09:38:17.114Z,2.55
2023-02-04T09:40:48.640Z,2.78
2023-02-04T09:43:21.455Z,2.50
2023-02-04T09:45:50.732Z,2.85
2023-02-04T09:48:20.264Z,2.80
2023-02-04T09:50:48.227Z,2.50
2023-02-04T09:53:21.299Z,2.50
2023-02-04T09:55:51.588Z,2.60
2023-02-04T09:58:21.641Z,2.35
2023-02-04T10:00:57.801Z,2.63
2023-02-04T10:03:27.277Z,2.58
2023-02-04T10:05:55.058Z,2.40
2023-02-04T10:08:29.237Z,2.05
2023-02-04T10:10:58.144Z,2.50
2023-02-04T10:13:32.705Z,2.42
2023-02-04T10:16:01.913Z,2.60
2023-02-04T10:18:33.729Z,2.65
2023-02-04T10:21:13.660Z,2.50
2023-02-04T10:23:43.414Z,2.40
2023-02-04T10:26:12.708Z,2.20
2023-02-04T10:28:41.247Z,2.22
2023-02-04T10:31:29.677Z,2.25
2023-02-04T10:34:06.454Z,1.60
2023-02-04T10:36:34.777Z,1.77
2023-02-04T10:39:03.317Z,1.70
2023-02-04T10:41:31.552Z,1.60
2023-02-04T10:44:07.721Z,1.73
2023-02-04T10:46:35.514Z,1.60
2023-02-04T10:49:07.460Z,1.30
2023-02-04T10:51:35.282Z,1.50
2023-02-04T10:54:20.624Z,1.83
2023-02-04T10:56:49.107Z,1.42
2023-02-04T10:59:26.809Z,1.50
2023-02-04T11:01:56.261Z,1.30
2023-02-04T11:04:25.800Z,1.30
2023-02-04T11:06:54.401Z,1.17
2023-02-04T11:09:22.756Z,1.38
2023-02-04T11:11:51.911Z,1.52
2023-02-04T11:14:26.164Z,1.30
2023-02-04T11:16:54.852Z,1.10
2023-02-04T11:19:35.319Z,1.70
2023-02-04T11:22:09.984Z,1.70
2023-02-04T11:24:38.129Z,1.38
2023-02-04T11:27:22.154Z,1.30
2023-02-04T11:29:50.161Z,1.35
2023-02-04T11:32:35.398Z,1.63
2023-02-04T11:35:24.064Z,1.40
2023-02-04T11:37:52.022Z,1.33
2023-02-04T11:40:38.995Z,1.23
2023-02-04T11:43:12.636Z,1.50
2023-02-04T11:45:42.020Z,1.20
2023-02-04T11:48:14.726Z,1.20
2023-02-04T11:50:45.203Z,1.52
2023-02-04T11:53:13.648Z,1.35
2023-02-04T11:55:47.589Z,1.20
2023-02-04T11:58:17.568Z,1.48
2023-02-04T12:00:46.183Z,1.35
2023-02-04T12:03:26.267Z,1.50
2023-02-04T12:05:56.219Z,1.50
2023-02-04T12:08:31.761Z,1.40
2023-02-04T12:11:07.559Z,1.60
2023-02-04T12:13:46.975Z,1.80
2023-02-04T12:16:14.905Z,1.88
2023-02-04T12:18:42.901Z,1.60
2023-02-04T12:21:12.160Z,1.83
2023-02-04T12:23:40.278Z,1.77
2023-02-04T12:26:08.664Z,1.92
2023-02-04T12:28:36.621Z,1.60
2023-02-04T12:31:04.881Z,1.92
2023-02-04T12:33:32.752Z,1.70
2023-02-04T12:36:00.560Z,2.00
2023-02-04T12:38:30.031Z,2.08
2023-02-04T12:40:58.195Z,2.00
2023-02-04T12:43:28.388Z,2.15
2023-02-04T12:45:56.408Z,2.55
2023-02-04T12:48:26.011Z,2.25
2023-02-04T12:50:53.918Z,1.92
2023-02-04T12:53:21.931Z,2.50
2023-02-04T12:55:51.592Z,2.22
2023-02-04T12:58:19.441Z,2.20
2023-02-04T13:00:47.952Z,2.50
2023-02-04T13:03:16.009Z,2.45
2023-02-04T13:05:46.898Z,2.33
2023-02-04T13:08:14.970Z,1.90
2023-02-04T13:10:44.872Z,2.40
2023-02-04T13:13:14.065Z,2.67
2023-02-04T13:15:41.925Z,2.40
2023-02-04T13:18:09.784Z,2.30
2023-02-04T13:20:37.917Z,2.58
2023-02-04T13:23:05.770Z,2.50
2023-02-04T13:25:33.906Z,2.15
2023-02-04T13:28:02.095Z,2.70
2023-02-04T13:30:31.793Z,2.90
2023-02-04T13:32:59.831Z,2.53
2023-02-04T13:35:27.944Z,2.60
2023-02-04T13:37:56.603Z,2.75
2023-02-04T13:40:24.488Z,2.85
2023-02-04T13:42:52.431Z,2.63
2023-02-04T13:45:20.680Z,2.65
2023-02-04T13:47:50.233Z,2.83
2023-02-04T13:50:18.305Z,2.63
2023-02-04T13:52:46.334Z,2.80
2023-02-04T13:55:14.450Z,2.60
2023-02-04T13:57:42.495Z,2.95
2023-02-04T14:00:11.619Z,2.70
2023-02-04T14:02:39.662Z,2.97
2023-02-04T14:05:08.924Z,3.05
2023-02-04T14:07:36.837Z,2.75
2023-02-04T14:10:05.508Z,3.08
2023-02-04T14:12:33.548Z,3.55
2023-02-04T14:15:01.704Z,2.90
2023-02-04T14:17:29.535Z,2.72
2023-02-04T14:19:57.709Z,2.58
2023-02-04T14:22:27.060Z,2.47
2023-02-04T14:24:54.870Z,2.80
2023-02-04T14:27:22.790Z,2.50
2023-02-04T14:29:50.740Z,2.60
2023-02-04T14:32:18.568Z,2.38
2023-02-04T14:34:46.466Z,2.75
2023-02-04T14:37:14.403Z,2.80
2023-02-04T14:39:43.624Z,2.97
2023-02-04T14:42:11.616Z,3.45
2023-02-04T14:44:39.482Z,2.90
2023-02-04T14:47:07.317Z,2.95
2023-02-04T14:49:37.230Z,3.17
2023-02-04T14:52:05.908Z,3.45
2023-02-04T14:54:33.823Z,3.17
2023-02-04T14:57:05.887Z,3.35
2023-02-04T14:59:33.959Z,3.25
2023-02-04T15:02:01.991Z,3.70
2023-02-04T15:04:39.266Z,3.60
2023-02-04T15:07:07.468Z,3.55
2023-02-04T15:09:35.523Z,3.55
2023-02-04T15:12:05.359Z,3.47
2023-02-04T15:14:33.404Z,3.75
2023-02-04T15:17:01.322Z,3.42
2023-02-04T15:19:29.245Z,3.47
2023-02-04T15:21:57.151Z,3.75
2023-02-04T15:24:26.802Z,3.70
2023-02-04T15:26:54.804Z,5.32
2023-02-04T15:29:24.212Z,5.70
2023-02-04T15:31:52.303Z,6.03
2023-02-04T15:34:20.407Z,6.07
2023-02-04T15:36:48.303Z,5.50
2023-02-04T15:39:16.190Z,4.73
2023-02-04T15:41:44.237Z,4.47
2023-02-04T15:44:12.832Z,4.73
2023-02-04T15:46:42.233Z,4.90
2023-02-04T15:49:10.157Z,4.90
2023-02-04T15:51:38.276Z,4.67
2023-02-04T15:54:06.177Z,4.73
2023-02-04T15:56:33.996Z,4.90
2023-02-04T15:59:02.583Z,4.90
2023-02-04T16:01:30.564Z,4.30
2023-02-04T16:04:00.835Z,4.53
2023-02-04T16:06:28.686Z,5.70
2023-02-04T16:08:56.481Z,6.27
2023-02-04T16:11:24.228Z,6.33
2023-02-04T16:13:52.035Z,6.07
2023-02-04T16:16:20.329Z,5.20
2023-02-04T16:18:48.100Z,4.70
2023-02-04T16:21:17.236Z,5.53
2023-02-04T16:23:45.039Z,5.30
2023-02-04T16:26:12.816Z,5.17
2023-02-04T16:28:40.593Z,5.00
2023-02-04T16:31:10.095Z,5.30
2023-02-04T16:33:37.912Z,5.80
2023-02-04T16:36:08.444Z,5.90
2023-02-04T16:38:38.836Z,5.93
2023-02-04T16:41:07.085Z,4.60
2023-02-04T16:43:34.882Z,4.67
2023-02-04T16:46:02.954Z,5.00
2023-02-04T16:48:30.757Z,5.93
2023-02-04T16:50:58.599Z,8.60
2023-02-04T16:53:26.526Z,8.20
2023-02-04T16:55:55.827Z,15.53
2023-02-04T16:58:23.903Z,16.63
2023-02-04T17:00:51.653Z,14.73
2023-02-04T17:03:19.378Z,19.97
2023-02-04T17:05:47.171Z,20.70
2023-02-04T17:08:17.270Z,14.77
2023-02-04T17:11:03.006Z,14.20
2023-02-04T17:13:32.280Z,11.67
2023-02-04T17:16:01.665Z,11.73
2023-02-04T17:18:32.872Z,11.17
2023-02-04T17:21:02.787Z,8.77
2023-02-04T17:23:30.569Z,7.20
2023-02-04T17:25:58.481Z,8.33
2023-02-04T17:28:26.340Z,9.40
2023-02-04T17:30:55.738Z,10.70
2023-02-04T17:33:23.666Z,10.97
2023-02-04T17:35:51.488Z,10.53
2023-02-04T17:38:19.384Z,10.13
2023-02-04T17:40:47.735Z,10.33
2023-02-04T17:43:15.493Z,8.43
2023-02-04T17:45:43.829Z,8.93
2023-02-04T17:48:12.985Z,7.30
2023-02-04T17:50:40.898Z,7.90
2023-02-04T17:53:09.134Z,8.63
2023-02-04T17:55:39.410Z,7.60
2023-02-04T17:58:15.499Z,8.53
2023-02-04T18:00:44.758Z,9.33
2023-02-04T18:03:16.256Z,9.07
2023-02-04T18:05:47.049Z,8.33
2023-02-04T18:08:17.476Z,8.20
2023-02-04T18:10:46.853Z,8.10
2023-02-04T18:13:17.296Z,7.82
2023-02-04T18:15:47.363Z,7.97
2023-02-04T18:18:23.035Z,8.93
2023-02-04T18:20:58.490Z,8.43
2023-02-04T18:23:28.630Z,8.37
2023-02-04T18:26:00.421Z,9.87
2023-02-04T18:28:28.352Z,9.77
2023-02-04T18:31:00.019Z,10.57
2023-02-04T18:33:32.898Z,10.37
2023-02-04T18:36:02.703Z,10.07
2023-02-04T18:38:34.373Z,8.50
2023-02-04T18:41:22.876Z,8.57
2023-02-04T18:44:00.626Z,8.90
2023-02-04T18:46:30.900Z,7.93
2023-02-04T18:49:09.072Z,8.90
2023-02-04T18:51:41.134Z,8.97
2023-02-04T18:54:33.818Z,7.90
2023-02-04T18:57:28.984Z,8.93
2023-02-04T19:00:28.614Z,9.07
2023-02-04T19:02:58.823Z,9.77
2023-02-04T19:05:32.178Z,9.40
2023-02-04T19:08:21.880Z,8.10
2023-02-04T19:10:51.277Z,8.30
2023-02-04T19:13:21.509Z,7.93
2023-02-04T19:15:57.783Z,7.90
2023-02-04T19:18:28.376Z,8.27
2023-02-04T19:21:09.612Z,9.03
2023-02-04T19:23:38.939Z,8.50
2023-02-04T19:26:26.194Z,8.40
2023-02-04T19:28:55.049Z,8.20
2023-02-04T19:31:24.019Z,8.93
2023-02-04T19:33:53.463Z,8.67
2023-02-04T19:36:38.041Z,7.47
2023-02-04T19:39:17.686Z,8.40
2023-02-04T19:41:49.029Z,8.00
2023-02-04T19:44:36.427Z,9.50
2023-02-04T19:47:21.561Z,10.73
2023-02-04T19:49:49.569Z,10.50
2023-02-04T19:52:37.751Z,9.73
2023-02-04T19:55:25.563Z,9.43
2023-02-04T19:57:55.246Z,10.00
2023-02-04T20:00:37.944Z,8.80
2023-02-04T20:03:16.328Z,8.80
2023-02-04T20:05:44.297Z,12.18
2023-02-04T20:08:42.390Z,9.30
2023-02-04T20:11:49.164Z,11.38
2023-02-04T20:14:26.653Z,10.30
2023-02-04T20:16:57.468Z,7.37
2023-02-04T20:19:35.498Z,9.90
2023-02-04T20:22:40.237Z,11.52
2023-02-04T20:25:47.084Z,9.60
2023-02-04T20:28:36.977Z,11.18
2023-02-04T20:31:25.991Z,9.97
2023-02-04T20:33:55.887Z,9.03
2023-02-04T20:36:43.313Z,9.87
2023-02-04T20:39:48.309Z,9.93
2023-02-04T20:42:30.316Z,8.67
2023-02-04T20:45:10.615Z,10.93
2023-02-04T20:47:38.584Z,12.45
2023-02-04T20:50:36.263Z,10.90
2023-02-04T20:53:09.284Z,10.52
2023-02-04T20:55:37.360Z,10.30
2023-02-04T20:58:17.198Z,7.60
2023-02-04T21:00:48.014Z,8.80
2023-02-04T21:03:21.517Z,10.43
2023-02-04T21:05:50.326Z,10.07
2023-02-04T21:08:27.627Z,9.70
2023-02-04T21:10:55.736Z,9.90
2023-02-04T21:13:25.397Z,8.90
2023-02-04T21:15:53.628Z,7.77
2023-02-04T21:18:22.023Z,8.03
2023-02-04T21:20:50.261Z,8.00
2023-02-04T21:23:18.929Z,6.40
2023-02-04T21:25:47.030Z,7.17
2023-02-04T21:28:15.433Z,6.53
2023-02-04T21:30:44.926Z,6.37
2023-02-04T21:33:13.655Z,6.30
2023-02-04T21:35:42.832Z,6.17
2023-02-04T21:38:11.108Z,6.40
2023-02-04T21:40:39.724Z,6.60
2023-02-04T21:43:08.455Z,6.40
2023-02-04T21:45:39.585Z,6.83
2023-02-04T21:48:09.073Z,7.07
2023-02-04T21:50:38.457Z,6.30
2023-02-04T21:53:08.083Z,6.50
2023-02-04T21:55:36.694Z,6.07
2023-02-04T21:58:05.196Z,6.17
2023-02-04T22:00:33.529Z,5.83
2023-02-04T22:03:01.684Z,5.83
2023-02-04T22:05:31.423Z,5.63
2023-02-04T22:07:59.975Z,5.83
2023-02-04T22:10:28.273Z,9.53
2023-02-04T22:12:56.256Z,12.77
2023-02-04T22:15:24.779Z,9.73
2023-02-04T22:17:54.199Z,11.23
2023-02-04T22:20:25.588Z,8.00
2023-02-04T22:22:54.912Z,7.17
2023-02-04T22:25:23.244Z,7.33
2023-02-04T22:27:53.012Z,7.33
2023-02-04T22:30:21.323Z,7.53
2023-02-04T22:32:49.406Z,6.43
2023-02-04T22:35:17.656Z,7.93
2023-02-04T22:37:45.417Z,8.57
2023-02-04T22:40:15.117Z,7.73
2023-02-04T22:42:43.171Z,8.07
2023-02-04T22:45:11.366Z,7.03
2023-02-04T22:47:39.465Z,7.10
2023-02-04T22:50:08.339Z,6.87
2023-02-04T22:52:36.776Z,7.30
2023-02-04T22:55:04.890Z,7.87
2023-02-04T22:57:34.048Z,6.57
2023-02-04T23:00:02.176Z,7.30
2023-02-04T23:02:30.713Z,7.30
2023-02-04T23:04:58.665Z,6.80
2023-02-04T23:07:26.672Z,7.43
2023-02-04T23:09:54.514Z,6.93
2023-02-04T23:12:22.477Z,7.27
2023-02-04T23:14:51.818Z,7.57
2023-02-04T23:17:20.261Z,6.70
2023-02-04T23:19:48.335Z,7.60
2023-02-04T23:22:17.340Z,7.07
2023-02-04T23:24:45.546Z,6.90
2023-02-04T23:27:13.545Z,7.13
2023-02-04T23:29:41.688Z,7.17
2023-02-04T23:32:11.032Z,8.20
2023-02-04T23:34:39.112Z,7.27
2023-02-04T23:37:07.085Z,6.80
2023-02-04T23:39:35.147Z,7.33
2023-02-04T23:42:03.142Z,7.10
2023-02-04T23:44:31.112Z,7.00
2023-02-04T23:46:59.088Z,6.90
2023-02-04T23:49:28.476Z,6.63
2023-02-04T23:51:56.348Z,6.17
2023-02-04T23:54:24.712Z,6.50
2023-02-04T23:56:53.425Z,6.80
2023-02-04T23:59:21.311Z,6.80
